sensor_id;sensor_type;location;lat;lon;timestamp;pressure;altitude;pressure_sealevel;temperature;humidity
57574;BME280;68988;49.000;21.242;2024-02-04T00:01:29;98528.97;;;21.79;33.70
57574;BME280;68988;49.000;21.242;2024-02-04T00:03:55;98534.84;;;21.81;33.68
57574;BME280;68988;49.000;21.242;2024-02-04T00:06:20;98544.19;;;21.78;33.75
57574;BME280;68988;49.000;21.242;2024-02-04T00:08:46;98542.31;;;21.79;33.71
57574;BME280;68988;49.000;21.242;2024-02-04T00:11:11;98540.94;;;21.76;33.75
57574;BME280;68988;49.000;21.242;2024-02-04T00:13:38;98531.09;;;21.77;33.73
57574;BME280;68988;49.000;21.242;2024-02-04T00:16:03;98522.00;;;21.78;34.04
57574;BME280;68988;49.000;21.242;2024-02-04T00:18:29;98519.91;;;21.80;33.60
57574;BME280;68988;49.000;21.242;2024-02-04T00:20:54;98516.38;;;21.74;33.61
57574;BME280;68988;49.000;21.242;2024-02-04T00:23:19;98521.44;;;21.71;33.86
57574;BME280;68988;49.000;21.242;2024-02-04T00:25:45;98529.47;;;21.76;33.75
57574;BME280;68988;49.000;21.242;2024-02-04T00:28:10;98527.84;;;21.75;33.67
57574;BME280;68988;49.000;21.242;2024-02-04T00:30:40;98522.25;;;21.76;33.71
57574;BME280;68988;49.000;21.242;2024-02-04T00:33:05;98524.09;;;21.71;33.68
57574;BME280;68988;49.000;21.242;2024-02-04T00:35:30;98520.69;;;21.80;33.67
57574;BME280;68988;49.000;21.242;2024-02-04T00:37:56;98522.00;;;21.78;33.51
57574;BME280;68988;49.000;21.242;2024-02-04T00:40:22;98523.09;;;21.77;33.80
57574;BME280;68988;49.000;21.242;2024-02-04T00:42:47;98521.22;;;21.77;33.73
57574;BME280;68988;49.000;21.242;2024-02-04T00:45:12;98536.44;;;21.77;33.53
57574;BME280;68988;49.000;21.242;2024-02-04T00:47:38;98523.03;;;21.72;33.77
57574;BME280;68988;49.000;21.242;2024-02-04T00:50:03;98521.72;;;21.74;33.62
57574;BME280;68988;49.000;21.242;2024-02-04T00:52:29;98529.47;;;21.76;33.74
57574;BME280;68988;49.000;21.242;2024-02-04T00:54:54;98519.84;;;21.75;33.87
57574;BME280;68988;49.000;21.242;2024-02-04T00:57:19;98529.47;;;21.76;33.75
57574;BME280;68988;49.000;21.242;2024-02-04T00:59:45;98529.19;;;21.72;33.63
57574;BME280;68988;49.000;21.242;2024-02-04T01:02:10;98539.34;;;21.75;33.52
57574;BME280;68988;49.000;21.242;2024-02-04T01:04:35;98526.81;;;21.76;33.70
57574;BME280;68988;49.000;21.242;2024-02-04T01:07:01;98524.63;;;21.73;33.71
57574;BME280;68988;49.000;21.242;2024-02-04T01:09:28;98529.47;;;21.76;33.55
57574;BME280;68988;49.000;21.242;2024-02-04T01:11:53;98545.47;;;21.76;33.50
57574;BME280;68988;49.000;21.242;2024-02-04T01:14:18;98536.44;;;21.77;33.80
57574;BME280;68988;49.000;21.242;2024-02-04T01:16:44;98514.25;;;21.76;34.04
57574;BME280;68988;49.000;21.242;2024-02-04T01:19:09;98510.44;;;21.67;33.75
57574;BME280;68988;49.000;21.242;2024-02-04T01:21:34;98495.25;;;21.68;33.83
57574;BME280;68988;49.000;21.242;2024-02-04T01:24:00;98505.94;;;21.68;33.83
57574;BME280;68988;49.000;21.242;2024-02-04T01:26:25;98494.41;;;21.62;33.81
57574;BME280;68988;49.000;21.242;2024-02-04T01:28:50;98501.66;;;21.67;33.68
57574;BME280;68988;49.000;21.242;2024-02-04T01:31:16;98488.81;;;21.63;33.64
57574;BME280;68988;49.000;21.242;2024-02-04T01:33:41;98494.44;;;21.67;33.68
57574;BME280;68988;49.000;21.242;2024-02-04T01:36:07;98484.59;;;21.68;33.98
57574;BME280;68988;49.000;21.242;2024-02-04T01:38:33;98472.28;;;21.67;33.96
57574;BME280;68988;49.000;21.242;2024-02-04T01:40:58;98467.47;;;21.63;33.83
57574;BME280;68988;49.000;21.242;2024-02-04T01:43:23;98457.06;;;21.67;33.72
57574;BME280;68988;49.000;21.242;2024-02-04T01:45:50;98453.31;;;21.63;33.90
57574;BME280;68988;49.000;21.242;2024-02-04T01:48:17;98462.91;;;21.64;33.70
57574;BME280;68988;49.000;21.242;2024-02-04T01:50:43;98460.81;;;21.66;33.85
57574;BME280;68988;49.000;21.242;2024-02-04T01:53:09;98468.56;;;21.68;33.97
57574;BME280;68988;49.000;21.242;2024-02-04T01:55:35;98483.47;;;21.63;33.88
57574;BME280;68988;49.000;21.242;2024-02-04T01:58:02;98481.59;;;21.64;33.91
57574;BME280;68988;49.000;21.242;2024-02-04T02:00:28;98469.88;;;21.65;33.66
57574;BME280;68988;49.000;21.242;2024-02-04T02:02:55;98482.44;;;21.70;33.67
57574;BME280;68988;49.000;21.242;2024-02-04T02:05:21;98476.53;;;21.62;33.87
57574;BME280;68988;49.000;21.242;2024-02-04T02:07:47;98468.81;;;21.66;33.78
57574;BME280;68988;49.000;21.242;2024-02-04T02:10:17;98473.34;;;21.66;33.68
57574;BME280;68988;49.000;21.242;2024-02-04T02:12:49;98475.50;;;21.69;33.70
57574;BME280;68988;49.000;21.242;2024-02-04T02:15:28;98463.19;;;21.62;33.91
57574;BME280;68988;49.000;21.242;2024-02-04T02:18:10;98463.75;;;21.64;33.78
57574;BME280;68988;49.000;21.242;2024-02-04T02:23:30;98455.69;;;21.59;33.88
57574;BME280;68988;49.000;21.242;2024-02-04T02:25:55;98466.88;;;21.56;33.91
57574;BME280;68988;49.000;21.242;2024-02-04T02:28:21;98455.16;;;21.62;33.66
57574;BME280;68988;49.000;21.242;2024-02-04T02:30:46;98452.50;;;21.62;33.67
57574;BME280;68988;49.000;21.242;2024-02-04T02:33:12;98445.56;;;21.61;33.89
57574;BME280;68988;49.000;21.242;2024-02-04T02:35:37;98444.25;;;21.64;33.77
57574;BME280;68988;49.000;21.242;2024-02-04T02:38:35;98433.06;;;21.67;33.63
57574;BME280;68988;49.000;21.242;2024-02-04T02:41:04;98420.47;;;21.57;33.87
57574;BME280;68988;49.000;21.242;2024-02-04T02:43:33;98427.41;;;21.58;33.86
57574;BME280;68988;49.000;21.242;2024-02-04T02:45:59;98428.47;;;21.57;33.74
57574;BME280;68988;49.000;21.242;2024-02-04T02:48:25;98438.59;;;21.55;33.94
57574;BME280;68988;49.000;21.242;2024-02-04T02:50:51;98441.56;;;21.64;33.69
57574;BME280;68988;49.000;21.242;2024-02-04T02:53:16;98441.53;;;21.59;33.85
57574;BME280;68988;49.000;21.242;2024-02-04T02:55:44;98440.25;;;21.61;33.73
57574;BME280;68988;49.000;21.242;2024-02-04T02:58:12;98441.56;;;21.64;33.90
57574;BME280;68988;49.000;21.242;2024-02-04T03:00:37;98442.06;;;21.56;33.80
57574;BME280;68988;49.000;21.242;2024-02-04T03:03:03;98441.28;;;21.60;33.74
57574;BME280;68988;49.000;21.242;2024-02-04T03:05:28;98436.47;;;21.57;33.60
57574;BME280;68988;49.000;21.242;2024-02-04T03:07:54;98433.28;;;21.60;33.67
57574;BME280;68988;49.000;21.242;2024-02-04T03:10:19;98433.81;;;21.62;33.95
57574;BME280;68988;49.000;21.242;2024-02-04T03:12:44;98437.00;;;21.59;33.84
57574;BME280;68988;49.000;21.242;2024-02-04T03:15:10;98434.34;;;21.59;33.77
57574;BME280;68988;49.000;21.242;2024-02-04T03:17:35;98440.19;;;21.56;33.63
57574;BME280;68988;49.000;21.242;2024-02-04T03:20:00;98441.28;;;21.60;33.78
57574;BME280;68988;49.000;21.242;2024-02-04T03:22:26;98437.00;;;21.59;33.87
57574;BME280;68988;49.000;21.242;2024-02-04T03:24:51;98446.34;;;21.57;33.78
57574;BME280;68988;49.000;21.242;2024-02-04T03:27:20;98436.47;;;21.57;34.02
57574;BME280;68988;49.000;21.242;2024-02-04T03:29:45;98423.38;;;21.56;33.77
57574;BME280;68988;49.000;21.242;2024-02-04T03:32:11;98426.31;;;21.54;33.87
57574;BME280;68988;49.000;21.242;2024-02-04T03:34:36;98426.03;;;21.56;33.79
57574;BME280;68988;49.000;21.242;2024-02-04T03:37:02;98414.59;;;21.55;33.63
57574;BME280;68988;49.000;21.242;2024-02-04T03:39:27;98412.72;;;21.56;33.75
57574;BME280;68988;49.000;21.242;2024-02-04T03:41:53;98402.81;;;21.56;33.74
57574;BME280;68988;49.000;21.242;2024-02-04T03:44:18;98407.91;;;21.58;33.72
57574;BME280;68988;49.000;21.242;2024-02-04T03:46:47;98414.31;;;21.57;33.81
57574;BME280;68988;49.000;21.242;2024-02-04T03:49:14;98422.59;;;21.55;33.79
57574;BME280;68988;49.000;21.242;2024-02-04T03:51:39;98417.53;;;21.59;33.75
57574;BME280;68988;49.000;21.242;2024-02-04T03:54:04;98417.25;;;21.55;33.83
57574;BME280;68988;49.000;21.242;2024-02-04T03:56:30;98418.03;;;21.56;33.72
57574;BME280;68988;49.000;21.242;2024-02-04T03:58:56;98420.97;;;21.54;33.80
57574;BME280;68988;49.000;21.242;2024-02-04T04:01:21;98410.28;;;21.54;33.95
57574;BME280;68988;49.000;21.242;2024-02-04T04:03:46;98407.09;;;21.52;33.93
57574;BME280;68988;49.000;21.242;2024-02-04T04:06:12;98416.16;;;21.51;33.98
57574;BME280;68988;49.000;21.242;2024-02-04T04:08:38;98415.63;;;21.54;33.77
57574;BME280;68988;49.000;21.242;2024-02-04T04:11:03;98415.63;;;21.54;33.73
57574;BME280;68988;49.000;21.242;2024-02-04T04:13:29;98408.69;;;21.53;33.78
57574;BME280;68988;49.000;21.242;2024-02-04T04:15:55;98407.09;;;21.52;33.78
57574;BME280;68988;49.000;21.242;2024-02-04T04:18:20;98406.53;;;21.50;33.59
57574;BME280;68988;49.000;21.242;2024-02-04T04:20:46;98413.47;;;21.51;33.65
57574;BME280;68988;49.000;21.242;2024-02-04T04:23:12;98407.50;;;21.44;33.86
57574;BME280;68988;49.000;21.242;2024-02-04T04:25:37;98409.50;;;21.54;33.63
57574;BME280;68988;49.000;21.242;2024-02-04T04:28:03;98408.63;;;21.48;33.83
57574;BME280;68988;49.000;21.242;2024-02-04T04:30:28;98409.66;;;21.47;33.90
57574;BME280;68988;49.000;21.242;2024-02-04T04:32:54;98400.41;;;21.50;33.56
57574;BME280;68988;49.000;21.242;2024-02-04T04:35:19;98396.06;;;21.49;34.14
57574;BME280;68988;49.000;21.242;2024-02-04T04:37:45;98395.84;;;21.50;33.72
57574;BME280;68988;49.000;21.242;2024-02-04T04:40:10;98405.94;;;21.48;33.78
57574;BME280;68988;49.000;21.242;2024-02-04T04:42:36;98397.47;;;21.51;33.97
57574;BME280;68988;49.000;21.242;2024-02-04T04:45:01;98401.41;;;21.49;33.82
57574;BME280;68988;49.000;21.242;2024-02-04T04:47:27;98392.13;;;21.51;34.01
57574;BME280;68988;49.000;21.242;2024-02-04T04:49:52;98396.41;;;21.52;33.65
57574;BME280;68988;49.000;21.242;2024-02-04T04:52:18;98403.53;;;21.46;34.02
57574;BME280;68988;49.000;21.242;2024-02-04T04:54:43;98405.47;;;21.51;33.75
57574;BME280;68988;49.000;21.242;2024-02-04T04:57:08;98402.28;;;21.49;34.24
57574;BME280;68988;49.000;21.242;2024-02-04T04:59:34;98405.94;;;21.48;33.85
57574;BME280;68988;49.000;21.242;2024-02-04T05:02:01;98401.66;;;21.47;33.39
57574;BME280;68988;49.000;21.242;2024-02-04T05:04:26;98397.41;;;21.46;33.73
57574;BME280;68988;49.000;21.242;2024-02-04T05:06:52;98392.06;;;21.46;33.71
57574;BME280;68988;49.000;21.242;2024-02-04T05:09:17;98402.19;;;21.44;33.71
57574;BME280;68988;49.000;21.242;2024-02-04T05:11:42;98406.47;;;21.45;33.77
57574;BME280;68988;49.000;21.242;2024-02-04T05:14:08;98396.06;;;21.43;33.91
57574;BME280;68988;49.000;21.242;2024-02-04T05:16:33;98402.75;;;21.46;34.07
57574;BME280;68988;49.000;21.242;2024-02-04T05:18:59;98405.16;;;21.48;33.78
57574;BME280;68988;49.000;21.242;2024-02-04T05:21:24;98405.34;;;21.41;33.85
57574;BME280;68988;49.000;21.242;2024-02-04T05:23:49;98420.34;;;21.47;33.66
57574;BME280;68988;49.000;21.242;2024-02-04T05:26:17;98424.59;;;21.43;33.75
57574;BME280;68988;49.000;21.242;2024-02-04T05:28:44;98423.25;;;21.45;33.87
57574;BME280;68988;49.000;21.242;2024-02-04T05:31:09;98429.44;;;21.46;33.77
57574;BME280;68988;49.000;21.242;2024-02-04T05:33:34;98436.84;;;21.44;33.79
57574;BME280;68988;49.000;21.242;2024-02-04T05:36:00;98446.47;;;21.45;33.71
57574;BME280;68988;49.000;21.242;2024-02-04T05:38:25;98447.00;;;21.42;33.88
57574;BME280;68988;49.000;21.242;2024-02-04T05:40:50;98452.88;;;21.44;33.83
57574;BME280;68988;49.000;21.242;2024-02-04T05:43:16;98449.13;;;21.40;34.06
57574;BME280;68988;49.000;21.242;2024-02-04T05:45:41;98452.06;;;21.43;33.77
57574;BME280;68988;49.000;21.242;2024-02-04T05:48:08;98458.72;;;21.41;33.67
57574;BME280;68988;49.000;21.242;2024-02-04T05:50:33;98464.88;;;21.41;33.79
57574;BME280;68988;49.000;21.242;2024-02-04T05:52:59;98475.81;;;21.45;33.80
57574;BME280;68988;49.000;21.242;2024-02-04T05:55:24;98484.38;;;21.47;33.58
57574;BME280;68988;49.000;21.242;2024-02-04T05:57:49;98472.03;;;21.41;33.63
57574;BME280;68988;49.000;21.242;2024-02-04T06:00:15;98463.25;;;21.40;34.04
57574;BME280;68988;49.000;21.242;2024-02-04T06:02:40;98473.91;;;21.40;33.93
57574;BME280;68988;49.000;21.242;2024-02-04T06:05:08;98477.88;;;21.38;33.88
57574;BME280;68988;49.000;21.242;2024-02-04T06:07:34;98473.16;;;21.45;33.79
57574;BME280;68988;49.000;21.242;2024-02-04T06:09:59;98473.41;;;21.43;33.74
57574;BME280;68988;49.000;21.242;2024-02-04T06:12:25;98463.28;;;21.45;33.73
57574;BME280;68988;49.000;21.242;2024-02-04T06:14:51;98470.75;;;21.43;33.71
57574;BME280;68988;49.000;21.242;2024-02-04T06:17:16;98468.59;;;21.40;33.70
57574;BME280;68988;49.000;21.242;2024-02-04T06:19:41;98482.47;;;21.42;33.87
57574;BME280;68988;49.000;21.242;2024-02-04T06:22:07;98471.50;;;21.39;33.81
57574;BME280;68988;49.000;21.242;2024-02-04T06:24:32;98469.38;;;21.41;33.80
57574;BME280;68988;49.000;21.242;2024-02-04T06:29:23;98484.03;;;21.38;33.67
57574;BME280;68988;49.000;21.242;2024-02-04T06:31:48;98481.13;;;21.40;33.92
57574;BME280;68988;49.000;21.242;2024-02-04T06:34:14;98463.53;;;21.44;33.77
57574;BME280;68988;49.000;21.242;2024-02-04T06:36:43;98441.91;;;21.40;33.74
57574;BME280;68988;49.000;21.242;2024-02-04T06:39:09;98446.44;;;21.40;33.70
57574;BME280;68988;49.000;21.242;2024-02-04T06:41:34;98450.44;;;21.42;33.91
57574;BME280;68988;49.000;21.242;2024-02-04T06:46:26;98455.78;;;21.42;33.72
57574;BME280;68988;49.000;21.242;2024-02-04T06:48:52;98455.00;;;21.42;33.80
57574;BME280;68988;49.000;21.242;2024-02-04T06:51:18;98462.53;;;21.50;33.50
57574;BME280;68988;49.000;21.242;2024-02-04T06:53:43;98466.28;;;21.49;33.78
57574;BME280;68988;49.000;21.242;2024-02-04T06:56:09;98459.31;;;21.48;33.65
57574;BME280;68988;49.000;21.242;2024-02-04T06:58:37;98449.44;;;21.49;33.85
57574;BME280;68988;49.000;21.242;2024-02-04T07:01:03;98446.53;;;21.50;33.63
57574;BME280;68988;49.000;21.242;2024-02-04T07:03:28;98451.56;;;21.46;33.63
57574;BME280;68988;49.000;21.242;2024-02-04T07:05:54;98451.31;;;21.48;33.50
57574;BME280;68988;49.000;21.242;2024-02-04T07:08:20;98453.97;;;21.48;33.60
57574;BME280;68988;49.000;21.242;2024-02-04T07:10:45;98461.50;;;21.51;33.46
57574;BME280;68988;49.000;21.242;2024-02-04T07:13:10;98459.81;;;21.45;33.67
57574;BME280;68988;49.000;21.242;2024-02-04T07:15:37;98473.41;;;21.43;33.71
57574;BME280;68988;49.000;21.242;2024-02-04T07:18:03;98476.63;;;21.45;33.73
57574;BME280;68988;49.000;21.242;2024-02-04T07:20:29;98475.78;;;21.40;33.61
57574;BME280;68988;49.000;21.242;2024-02-04T07:22:54;98476.38;;;21.47;33.82
57574;BME280;68988;49.000;21.242;2024-02-04T07:25:20;98476.38;;;21.47;33.53
57574;BME280;68988;49.000;21.242;2024-02-04T07:27:45;98462.22;;;21.46;33.66
57574;BME280;68988;49.000;21.242;2024-02-04T07:30:11;98476.34;;;21.42;33.75
57574;BME280;68988;49.000;21.242;2024-02-04T07:32:36;98456.09;;;21.46;33.87
57574;BME280;68988;49.000;21.242;2024-02-04T07:35:02;98462.75;;;21.43;33.62
57574;BME280;68988;49.000;21.242;2024-02-04T07:37:28;98489.41;;;21.43;33.72
57574;BME280;68988;49.000;21.242;2024-02-04T07:39:53;98481.41;;;21.43;33.68
57574;BME280;68988;49.000;21.242;2024-02-04T07:42:19;98478.50;;;21.45;33.77
57574;BME280;68988;49.000;21.242;2024-02-04T07:44:44;98472.09;;;21.46;33.77
57574;BME280;68988;49.000;21.242;2024-02-04T07:47:09;98471.00;;;21.42;33.54
57574;BME280;68988;49.000;21.242;2024-02-04T07:49:35;98474.19;;;21.44;33.85
57574;BME280;68988;49.000;21.242;2024-02-04T07:52:00;98473.13;;;21.40;33.63
57574;BME280;68988;49.000;21.242;2024-02-04T07:54:26;98484.88;;;21.44;33.88
57574;BME280;68988;49.000;21.242;2024-02-04T07:56:51;98489.97;;;21.45;33.64
57574;BME280;68988;49.000;21.242;2024-02-04T07:59:16;98483.03;;;21.44;33.54
57574;BME280;68988;49.000;21.242;2024-02-04T08:01:41;98497.63;;;21.37;33.64
57574;BME280;68988;49.000;21.242;2024-02-04T08:04:07;98523.81;;;21.40;33.73
57574;BME280;68988;49.000;21.242;2024-02-04T08:06:35;98523.22;;;21.38;33.79
57574;BME280;68988;49.000;21.242;2024-02-04T08:09:03;98520.13;;;21.46;33.77
57574;BME280;68988;49.000;21.242;2024-02-04T08:11:28;98508.63;;;21.45;33.80
57574;BME280;68988;49.000;21.242;2024-02-04T08:13:53;98501.97;;;21.43;33.82
57574;BME280;68988;49.000;21.242;2024-02-04T08:16:19;98532.06;;;21.38;33.79
57574;BME280;68988;49.000;21.242;2024-02-04T08:18:45;98562.09;;;21.28;33.71
57574;BME280;68988;49.000;21.242;2024-02-04T08:21:11;98586.09;;;21.28;34.08
57574;BME280;68988;49.000;21.242;2024-02-04T08:23:36;98594.72;;;21.36;33.85
57574;BME280;68988;49.000;21.242;2024-02-04T08:26:02;98614.41;;;21.35;33.95
57574;BME280;68988;49.000;21.242;2024-02-04T08:28:27;98525.88;;;21.33;33.79
57574;BME280;68988;49.000;21.242;2024-02-04T08:30:53;98499.53;;;21.41;33.49
57574;BME280;68988;49.000;21.242;2024-02-04T08:33:18;98511.88;;;21.48;33.77
57574;BME280;68988;49.000;21.242;2024-02-04T08:35:44;98490.59;;;21.53;33.71
57574;BME280;68988;49.000;21.242;2024-02-04T08:38:09;98474.31;;;21.54;33.79
57574;BME280;68988;49.000;21.242;2024-02-04T08:40:34;98486.41;;;21.62;33.42
57574;BME280;68988;49.000;21.242;2024-02-04T08:43:00;98465.06;;;21.62;33.13
57574;BME280;68988;49.000;21.242;2024-02-04T08:45:25;98472.28;;;21.67;33.32
57574;BME280;68988;49.000;21.242;2024-02-04T08:47:51;98461.63;;;21.72;33.25
57574;BME280;68988;49.000;21.242;2024-02-04T08:50:16;98453.06;;;21.64;33.33
57574;BME280;68988;49.000;21.242;2024-02-04T08:52:42;98463.22;;;21.68;33.37
57574;BME280;68988;49.000;21.242;2024-02-04T08:55:07;98462.97;;;21.69;32.89
57574;BME280;68988;49.000;21.242;2024-02-04T08:57:34;98456.88;;;21.74;33.11
57574;BME280;68988;49.000;21.242;2024-02-04T08:59:59;98465.13;;;21.72;32.94
57574;BME280;68988;49.000;21.242;2024-02-04T09:02:24;98457.13;;;21.72;33.33
57574;BME280;68988;49.000;21.242;2024-02-04T09:04:50;98451.78;;;21.72;33.21
57574;BME280;68988;49.000;21.242;2024-02-04T09:07:15;98458.47;;;21.75;33.13
57574;BME280;68988;49.000;21.242;2024-02-04T09:09:40;98465.41;;;21.76;33.40
57574;BME280;68988;49.000;21.242;2024-02-04T09:12:10;98462.75;;;21.76;33.01
57574;BME280;68988;49.000;21.242;2024-02-04T09:14:35;98454.22;;;21.79;33.09
57574;BME280;68988;49.000;21.242;2024-02-04T09:17:04;98446.25;;;21.84;33.21
57574;BME280;68988;49.000;21.242;2024-02-04T09:19:30;98440.91;;;21.84;33.51
57574;BME280;68988;49.000;21.242;2024-02-04T09:21:56;98441.97;;;21.83;33.28
57574;BME280;68988;49.000;21.242;2024-02-04T09:24:22;98442.53;;;21.85;33.09
57574;BME280;68988;49.000;21.242;2024-02-04T09:26:47;98443.88;;;21.88;32.95
57574;BME280;68988;49.000;21.242;2024-02-04T09:29:13;98447.06;;;21.85;33.10
57574;BME280;68988;49.000;21.242;2024-02-04T09:31:38;98440.91;;;21.84;33.15
57574;BME280;68988;49.000;21.242;2024-02-04T09:34:03;98451.31;;;21.86;33.18
57574;BME280;68988;49.000;21.242;2024-02-04T09:36:29;98456.41;;;21.87;33.18
57574;BME280;68988;49.000;21.242;2024-02-04T09:38:54;98453.22;;;21.90;33.13
57574;BME280;68988;49.000;21.242;2024-02-04T09:41:21;98457.22;;;21.88;32.97
57574;BME280;68988;49.000;21.242;2024-02-04T09:43:49;98464.94;;;21.84;33.12
57574;BME280;68988;49.000;21.242;2024-02-04T09:46:16;98465.44;;;21.81;33.11
57574;BME280;68988;49.000;21.242;2024-02-04T09:48:44;98467.84;;;21.82;33.33
57574;BME280;68988;49.000;21.242;2024-02-04T09:51:10;98457.75;;;21.85;33.21
57574;BME280;68988;49.000;21.242;2024-02-04T09:53:36;98458.00;;;21.83;33.16
57574;BME280;68988;49.000;21.242;2024-02-04T09:56:06;98448.88;;;21.79;33.34
57574;BME280;68988;49.000;21.242;2024-02-04T09:58:33;98454.50;;;21.82;33.19
57574;BME280;68988;49.000;21.242;2024-02-04T10:01:03;98450.50;;;21.80;33.52
57574;BME280;68988;49.000;21.242;2024-02-04T10:03:29;98470.75;;;21.76;33.38
57574;BME280;68988;49.000;21.242;2024-02-04T10:05:54;98449.38;;;21.71;33.21
57574;BME280;68988;49.000;21.242;2024-02-04T10:08:20;98452.59;;;21.78;33.54
57574;BME280;68988;49.000;21.242;2024-02-04T10:10:47;98462.22;;;21.79;33.51
57574;BME280;68988;49.000;21.242;2024-02-04T10:13:12;98449.44;;;21.81;33.51
57574;BME280;68988;49.000;21.242;2024-02-04T10:15:38;98444.06;;;21.76;33.73
57574;BME280;68988;49.000;21.242;2024-02-04T10:18:07;98448.38;;;21.82;33.29
57574;BME280;68988;49.000;21.242;2024-02-04T10:20:33;98448.38;;;21.82;33.46
57574;BME280;68988;49.000;21.242;2024-02-04T10:22:59;98428.31;;;21.79;33.51
57574;BME280;68988;49.000;21.242;2024-02-04T10:25:26;98433.94;;;21.78;33.41
57574;BME280;68988;49.000;21.242;2024-02-04T10:27:52;98435.03;;;21.82;33.39
57574;BME280;68988;49.000;21.242;2024-02-04T10:30:19;98413.94;;;21.80;33.52
57574;BME280;68988;49.000;21.242;2024-02-04T10:32:46;98416.63;;;21.86;33.38
57574;BME280;68988;49.000;21.242;2024-02-04T10:35:11;98432.34;;;21.82;33.39
57574;BME280;68988;49.000;21.242;2024-02-04T10:37:37;98421.16;;;21.85;33.25
57574;BME280;68988;49.000;21.242;2024-02-04T10:40:03;98414.72;;;21.81;33.30
57574;BME280;68988;49.000;21.242;2024-02-04T10:42:29;98424.88;;;21.84;33.26
57574;BME280;68988;49.000;21.242;2024-02-04T10:44:58;98421.41;;;21.84;33.36
57574;BME280;68988;49.000;21.242;2024-02-04T10:47:28;98419.53;;;21.84;33.30
57574;BME280;68988;49.000;21.242;2024-02-04T10:49:58;98426.50;;;21.85;33.44
57574;BME280;68988;49.000;21.242;2024-02-04T10:52:28;98428.91;;;21.81;33.50
57574;BME280;68988;49.000;21.242;2024-02-04T10:54:55;98412.31;;;21.79;33.38
57574;BME280;68988;49.000;21.242;2024-02-04T10:57:21;98424.09;;;21.84;33.46
57574;BME280;68988;49.000;21.242;2024-02-04T10:59:48;98441.97;;;21.83;33.70
57574;BME280;68988;49.000;21.242;2024-02-04T11:02:15;98444.66;;;21.83;33.48
57574;BME280;68988;49.000;21.242;2024-02-04T11:04:42;98449.16;;;21.82;33.44
57574;BME280;68988;49.000;21.242;2024-02-04T11:07:08;98460.94;;;21.81;33.32
57574;BME280;68988;49.000;21.242;2024-02-04T11:09:36;98483.06;;;21.82;33.55
57574;BME280;68988;49.000;21.242;2024-02-04T11:12:05;98466.81;;;21.84;33.48
57574;BME280;68988;49.000;21.242;2024-02-04T11:14:33;98455.84;;;21.80;33.25
57574;BME280;68988;49.000;21.242;2024-02-04T11:25:46;98415.63;;;21.97;33.11
57574;BME280;68988;49.000;21.242;2024-02-04T11:28:13;98418.50;;;21.85;33.30
57574;BME280;68988;49.000;21.242;2024-02-04T11:30:39;98431.06;;;21.90;33.25
57574;BME280;68988;49.000;21.242;2024-02-04T11:33:05;98428.41;;;21.90;33.26
57574;BME280;68988;49.000;21.242;2024-02-04T11:35:32;98430.78;;;21.86;33.54
57574;BME280;68988;49.000;21.242;2024-02-04T11:37:57;98434.25;;;21.87;33.61
57574;BME280;68988;49.000;21.242;2024-02-04T11:40:23;98451.06;;;21.87;33.31
57574;BME280;68988;49.000;21.242;2024-02-04T11:42:50;98450.28;;;21.92;33.42
57574;BME280;68988;49.000;21.242;2024-02-04T11:45:16;98440.94;;;21.89;33.41
57574;BME280;68988;49.000;21.242;2024-02-04T11:47:42;98435.09;;;21.92;33.24
57574;BME280;68988;49.000;21.242;2024-02-04T11:50:08;98419.59;;;21.89;33.30
57574;BME280;68988;49.000;21.242;2024-02-04T11:52:34;98406.53;;;21.93;33.16
57574;BME280;68988;49.000;21.242;2024-02-04T11:55:00;98400.66;;;21.96;33.42
57574;BME280;68988;49.000;21.242;2024-02-04T11:57:25;98387.84;;;21.98;33.26
57574;BME280;68988;49.000;21.242;2024-02-04T11:59:52;98381.72;;;21.97;33.22
57574;BME280;68988;49.000;21.242;2024-02-04T12:02:19;98376.91;;;21.94;33.27
57574;BME280;68988;49.000;21.242;2024-02-04T12:04:45;98373.44;;;21.99;33.02
57574;BME280;68988;49.000;21.242;2024-02-04T12:07:13;98366.53;;;22.03;33.14
57574;BME280;68988;49.000;21.242;2024-02-04T12:09:38;98368.13;;;22.04;33.26
57574;BME280;68988;49.000;21.242;2024-02-04T12:12:04;98353.97;;;22.04;33.17
57574;BME280;68988;49.000;21.242;2024-02-04T12:14:30;98356.66;;;22.09;33.22
57574;BME280;68988;49.000;21.242;2024-02-04T12:16:56;98349.16;;;22.06;33.09
57574;BME280;68988;49.000;21.242;2024-02-04T12:19:22;98343.81;;;22.00;33.12
57574;BME280;68988;49.000;21.242;2024-02-04T12:21:48;98332.09;;;22.07;33.15
57574;BME280;68988;49.000;21.242;2024-02-04T12:24:14;98316.59;;;22.04;33.04
57574;BME280;68988;49.000;21.242;2024-02-04T12:26:39;98305.91;;;22.04;33.16
57574;BME280;68988;49.000;21.242;2024-02-04T12:29:06;98307.53;;;22.05;33.04
57574;BME280;68988;49.000;21.242;2024-02-04T12:31:31;98304.81;;;21.99;33.45
57574;BME280;68988;49.000;21.242;2024-02-04T12:33:59;98301.38;;;21.99;33.22
57574;BME280;68988;49.000;21.242;2024-02-04T12:36:30;98298.97;;;22.03;33.15
57574;BME280;68988;49.000;21.242;2024-02-04T12:38:58;98285.63;;;22.03;33.31
57574;BME280;68988;49.000;21.242;2024-02-04T12:41:24;98278.16;;;22.05;33.27
57574;BME280;68988;49.000;21.242;2024-02-04T12:43:53;98264.81;;;22.05;33.32
57574;BME280;68988;49.000;21.242;2024-02-04T12:46:19;98281.63;;;22.05;33.20
57574;BME280;68988;49.000;21.242;2024-02-04T12:48:53;98286.69;;;22.02;33.18
57574;BME280;68988;49.000;21.242;2024-02-04T12:51:32;98275.50;;;22.10;33.12
57574;BME280;68988;49.000;21.242;2024-02-04T12:56:51;98269.91;;;22.11;33.20
57574;BME280;68988;49.000;21.242;2024-02-04T12:59:31;98263.19;;;22.09;33.13
57574;BME280;68988;49.000;21.242;2024-02-04T13:01:58;98254.13;;;22.05;33.29
57574;BME280;68988;49.000;21.242;2024-02-04T13:04:23;98253.59;;;22.08;33.38